sensor_id;sensor_type;location;lat;lon;timestamp;temperature;humidity
6627;DHT22;3349;49.830;8.748;2022-12-05T00:02:16;3.00;99.90
6627;DHT22;3349;49.830;8.748;2022-12-05T00:04:43;3.00;99.90
6627;DHT22;3349;49.830;8.748;2022-12-05T00:07:09;3.00;99.90
6627;DHT22;3349;49.830;8.748;2022-12-05T00:09:36;3.00;99.90
6627;DHT22;3349;49.830;8.748;2022-12-05T00:12:03;3.00;99.90
6627;DHT22;3349;49.830;8.748;2022-12-05T00:14:30;3.10;99.90
6627;DHT22;3349;49.830;8.748;2022-12-05T00:16:57;3.00;99.90
6627;DHT22;3349;49.830;8.748;2022-12-05T00:19:28;3.10;99.90
6627;DHT22;3349;49.830;8.748;2022-12-05T00:21:55;3.00;99.90
6627;DHT22;3349;49.830;8.748;2022-12-05T00:24:23;3.10;99.90
6627;DHT22;3349;49.830;8.748;2022-12-05T00:26:49;3.10;99.90
6627;DHT22;3349;49.830;8.748;2022-12-05T00:29:16;3.00;99.90
6627;DHT22;3349;49.830;8.748;2022-12-05T00:31:43;3.10;99.90
6627;DHT22;3349;49.830;8.748;2022-12-05T00:34:10;3.00;99.90
6627;DHT22;3349;49.830;8.748;2022-12-05T00:36:38;3.00;99.90
6627;DHT22;3349;49.830;8.748;2022-12-05T00:39:07;3.00;99.90
6627;DHT22;3349;49.830;8.748;2022-12-05T00:41:35;3.00;99.90
6627;DHT22;3349;49.830;8.748;2022-12-05T00:44:03;3.00;99.90
6627;DHT22;3349;49.830;8.748;2022-12-05T00:46:31;3.00;99.90
6627;DHT22;3349;49.830;8.748;2022-12-05T00:48:59;3.00;99.90
6627;DHT22;3349;49.830;8.748;2022-12-05T00:51:28;3.00;99.90
6627;DHT22;3349;49.830;8.748;2022-12-05T00:53:57;3.10;99.90
6627;DHT22;3349;49.830;8.748;2022-12-05T00:56:26;3.10;99.90
6627;DHT22;3349;49.830;8.748;2022-12-05T00:58:54;3.00;99.90
6627;DHT22;3349;49.830;8.748;2022-12-05T01:01:23;3.00;99.90
6627;DHT22;3349;49.830;8.748;2022-12-05T01:03:54;3.00;99.90
6627;DHT22;3349;49.830;8.748;2022-12-05T01:06:22;3.00;99.90
6627;DHT22;3349;49.830;8.748;2022-12-05T01:08:49;3.00;99.90
6627;DHT22;3349;49.830;8.748;2022-12-05T01:11:18;3.00;99.90
6627;DHT22;3349;49.830;8.748;2022-12-05T01:13:46;3.00;99.90
6627;DHT22;3349;49.830;8.748;2022-12-05T01:16:14;3.10;99.90
6627;DHT22;3349;49.830;8.748;2022-12-05T01:18:40;3.10;99.90
6627;DHT22;3349;49.830;8.748;2022-12-05T01:21:08;3.10;99.90
6627;DHT22;3349;49.830;8.748;2022-12-05T01:23:35;3.10;99.90
6627;DHT22;3349;49.830;8.748;2022-12-05T01:26:05;3.10;99.90
6627;DHT22;3349;49.830;8.748;2022-12-05T01:28:34;3.10;99.90
6627;DHT22;3349;49.830;8.748;2022-12-05T01:31:04;3.00;99.90
6627;DHT22;3349;49.830;8.748;2022-12-05T01:33:32;3.00;99.90
6627;DHT22;3349;49.830;8.748;2022-12-05T01:35:59;3.00;99.90
6627;DHT22;3349;49.830;8.748;2022-12-05T01:38:26;3.00;99.90
6627;DHT22;3349;49.830;8.748;2022-12-05T01:40:59;3.00;99.90
6627;DHT22;3349;49.830;8.748;2022-12-05T01:43:26;3.00;99.90
6627;DHT22;3349;49.830;8.748;2022-12-05T01:45:54;3.00;99.90
6627;DHT22;3349;49.830;8.748;2022-12-05T01:48:23;3.00;99.90
6627;DHT22;3349;49.830;8.748;2022-12-05T01:50:51;3.00;99.90
6627;DHT22;3349;49.830;8.748;2022-12-05T01:53:18;3.00;99.90
6627;DHT22;3349;49.830;8.748;2022-12-05T01:55:45;3.00;99.90
6627;DHT22;3349;49.830;8.748;2022-12-05T01:58:13;3.00;99.90
6627;DHT22;3349;49.830;8.748;2022-12-05T02:00:41;3.00;99.90
6627;DHT22;3349;49.830;8.748;2022-12-05T02:03:14;3.00;99.90
6627;DHT22;3349;49.830;8.748;2022-12-05T02:05:42;3.00;99.90
6627;DHT22;3349;49.830;8.748;2022-12-05T02:08:10;2.90;99.90
6627;DHT22;3349;49.830;8.748;2022-12-05T02:10:39;2.90;99.90
6627;DHT22;3349;49.830;8.748;2022-12-05T02:13:16;2.90;99.90
6627;DHT22;3349;49.830;8.748;2022-12-05T02:15:47;2.90;99.90
6627;DHT22;3349;49.830;8.748;2022-12-05T02:18:26;3.00;99.90
6627;DHT22;3349;49.830;8.748;2022-12-05T02:21:13;2.90;99.90
6627;DHT22;3349;49.830;8.748;2022-12-05T02:26:58;2.90;99.90
6627;DHT22;3349;49.830;8.748;2022-12-05T02:29:49;3.00;99.90
6627;DHT22;3349;49.830;8.748;2022-12-05T02:32:25;3.00;99.90
6627;DHT22;3349;49.830;8.748;2022-12-05T02:34:59;3.10;99.90
6627;DHT22;3349;49.830;8.748;2022-12-05T02:37:33;3.10;99.90
6627;DHT22;3349;49.830;8.748;2022-12-05T02:40:09;3.10;99.90
6627;DHT22;3349;49.830;8.748;2022-12-05T02:42:44;3.00;99.90
6627;DHT22;3349;49.830;8.748;2022-12-05T02:45:15;3.00;99.90
6627;DHT22;3349;49.830;8.748;2022-12-05T02:47:46;3.00;99.90
6627;DHT22;3349;49.830;8.748;2022-12-05T02:50:16;3.00;99.90
6627;DHT22;3349;49.830;8.748;2022-12-05T02:52:46;3.00;99.90
6627;DHT22;3349;49.830;8.748;2022-12-05T02:55:14;3.00;99.90
6627;DHT22;3349;49.830;8.748;2022-12-05T02:57:44;3.00;99.90
6627;DHT22;3349;49.830;8.748;2022-12-05T03:00:15;3.00;99.90
6627;DHT22;3349;49.830;8.748;2022-12-05T03:02:42;3.00;99.90
6627;DHT22;3349;49.830;8.748;2022-12-05T03:05:17;3.00;99.90
6627;DHT22;3349;49.830;8.748;2022-12-05T03:07:46;3.00;99.90
6627;DHT22;3349;49.830;8.748;2022-12-05T03:10:16;3.00;99.90
6627;DHT22;3349;49.830;8.748;2022-12-05T03:12:50;3.00;99.90
6627;DHT22;3349;49.830;8.748;2022-12-05T03:15:22;3.00;99.90
6627;DHT22;3349;49.830;8.748;2022-12-05T03:17:54;3.00;99.90
6627;DHT22;3349;49.830;8.748;2022-12-05T03:20:26;2.90;99.90
6627;DHT22;3349;49.830;8.748;2022-12-05T03:22:57;3.00;99.90
6627;DHT22;3349;49.830;8.748;2022-12-05T03:25:31;3.00;99.90
6627;DHT22;3349;49.830;8.748;2022-12-05T03:28:03;3.00;99.90
6627;DHT22;3349;49.830;8.748;2022-12-05T03:30:37;3.10;99.90
6627;DHT22;3349;49.830;8.748;2022-12-05T03:33:08;3.10;99.90
6627;DHT22;3349;49.830;8.748;2022-12-05T03:35:42;3.10;99.90
6627;DHT22;3349;49.830;8.748;2022-12-05T03:38:13;3.10;99.90
6627;DHT22;3349;49.830;8.748;2022-12-05T03:40:43;3.10;99.90
6627;DHT22;3349;49.830;8.748;2022-12-05T03:43:15;3.10;99.90
6627;DHT22;3349;49.830;8.748;2022-12-05T03:45:53;3.10;99.90
6627;DHT22;3349;49.830;8.748;2022-12-05T03:48:24;3.10;99.90
6627;DHT22;3349;49.830;8.748;2022-12-05T03:50:54;3.20;99.90
6627;DHT22;3349;49.830;8.748;2022-12-05T03:53:26;3.20;99.90
6627;DHT22;3349;49.830;8.748;2022-12-05T03:55:58;3.20;99.90
6627;DHT22;3349;49.830;8.748;2022-12-05T03:58:30;3.20;99.90
6627;DHT22;3349;49.830;8.748;2022-12-05T04:01:00;3.20;99.90
6627;DHT22;3349;49.830;8.748;2022-12-05T04:03:32;3.20;99.90
6627;DHT22;3349;49.830;8.748;2022-12-05T04:06:09;3.20;99.90
6627;DHT22;3349;49.830;8.748;2022-12-05T04:08:41;3.30;99.90
6627;DHT22;3349;49.830;8.748;2022-12-05T04:11:13;3.30;99.90
6627;DHT22;3349;49.830;8.748;2022-12-05T04:13:45;3.30;99.90
6627;DHT22;3349;49.830;8.748;2022-12-05T04:16:18;3.20;99.90
6627;DHT22;3349;49.830;8.748;2022-12-05T04:19:08;3.20;99.90
6627;DHT22;3349;49.830;8.748;2022-12-05T04:21:39;3.30;99.90
6627;DHT22;3349;49.830;8.748;2022-12-05T04:24:08;3.30;99.90
6627;DHT22;3349;49.830;8.748;2022-12-05T04:27:04;3.30;99.90
6627;DHT22;3349;49.830;8.748;2022-12-05T04:29:38;3.30;99.90
6627;DHT22;3349;49.830;8.748;2022-12-05T04:32:09;3.30;99.90
6627;DHT22;3349;49.830;8.748;2022-12-05T04:34:41;3.40;99.90
6627;DHT22;3349;49.830;8.748;2022-12-05T04:37:12;3.40;99.90
6627;DHT22;3349;49.830;8.748;2022-12-05T04:39:43;3.40;99.90
6627;DHT22;3349;49.830;8.748;2022-12-05T04:42:14;3.50;99.90
6627;DHT22;3349;49.830;8.748;2022-12-05T04:44:44;3.50;99.90
6627;DHT22;3349;49.830;8.748;2022-12-05T04:47:14;3.50;99.90
6627;DHT22;3349;49.830;8.748;2022-12-05T04:49:43;3.60;99.90
6627;DHT22;3349;49.830;8.748;2022-12-05T04:52:12;3.60;99.90
6627;DHT22;3349;49.830;8.748;2022-12-05T04:54:42;3.60;99.90
6627;DHT22;3349;49.830;8.748;2022-12-05T04:57:17;3.60;99.90
6627;DHT22;3349;49.830;8.748;2022-12-05T04:59:45;3.70;99.90
6627;DHT22;3349;49.830;8.748;2022-12-05T05:02:17;3.60;99.90
6627;DHT22;3349;49.830;8.748;2022-12-05T05:04:46;3.70;99.90
6627;DHT22;3349;49.830;8.748;2022-12-05T05:07:16;3.70;99.90
6627;DHT22;3349;49.830;8.748;2022-12-05T05:09:43;3.70;99.90
6627;DHT22;3349;49.830;8.748;2022-12-05T05:12:10;3.70;99.90
6627;DHT22;3349;49.830;8.748;2022-12-05T05:14:37;3.70;99.90
6627;DHT22;3349;49.830;8.748;2022-12-05T05:17:04;3.70;99.90
6627;DHT22;3349;49.830;8.748;2022-12-05T05:19:32;3.70;99.90
6627;DHT22;3349;49.830;8.748;2022-12-05T05:21:59;3.70;99.90
6627;DHT22;3349;49.830;8.748;2022-12-05T05:24:25;3.70;99.90
6627;DHT22;3349;49.830;8.748;2022-12-05T05:26:52;3.70;99.90
6627;DHT22;3349;49.830;8.748;2022-12-05T05:29:19;3.70;99.90
6627;DHT22;3349;49.830;8.748;2022-12-05T05:31:46;3.70;99.90
6627;DHT22;3349;49.830;8.748;2022-12-05T05:34:13;3.60;99.90
6627;DHT22;3349;49.830;8.748;2022-12-05T05:36:42;3.60;99.90
6627;DHT22;3349;49.830;8.748;2022-12-05T05:39:12;3.60;99.90
6627;DHT22;3349;49.830;8.748;2022-12-05T05:41:40;3.70;99.90
6627;DHT22;3349;49.830;8.748;2022-12-05T05:44:07;3.70;99.90
6627;DHT22;3349;49.830;8.748;2022-12-05T05:46:34;3.60;99.90
6627;DHT22;3349;49.830;8.748;2022-12-05T05:49:01;3.60;99.90
6627;DHT22;3349;49.830;8.748;2022-12-05T05:51:28;3.60;99.90
6627;DHT22;3349;49.830;8.748;2022-12-05T05:53:57;3.60;99.90
6627;DHT22;3349;49.830;8.748;2022-12-05T05:56:24;3.60;99.90
6627;DHT22;3349;49.830;8.748;2022-12-05T05:58:56;3.60;99.90
6627;DHT22;3349;49.830;8.748;2022-12-05T06:01:23;3.60;99.90
6627;DHT22;3349;49.830;8.748;2022-12-05T06:03:50;3.60;99.90
6627;DHT22;3349;49.830;8.748;2022-12-05T06:06:18;3.60;99.90
6627;DHT22;3349;49.830;8.748;2022-12-05T06:08:45;3.60;99.90
6627;DHT22;3349;49.830;8.748;2022-12-05T06:11:15;3.60;99.90
6627;DHT22;3349;49.830;8.748;2022-12-05T06:13:42;3.60;99.90
6627;DHT22;3349;49.830;8.748;2022-12-05T06:16:11;3.60;99.90
6627;DHT22;3349;49.830;8.748;2022-12-05T06:18:38;3.60;99.90
6627;DHT22;3349;49.830;8.748;2022-12-05T06:21:05;3.60;99.90
6627;DHT22;3349;49.830;8.748;2022-12-05T06:23:33;3.60;99.90
6627;DHT22;3349;49.830;8.748;2022-12-05T06:26:01;3.60;99.90
6627;DHT22;3349;49.830;8.748;2022-12-05T06:28:30;3.60;99.90
6627;DHT22;3349;49.830;8.748;2022-12-05T06:30:57;3.50;99.90
6627;DHT22;3349;49.830;8.748;2022-12-05T06:33:24;3.60;99.90
6627;DHT22;3349;49.830;8.748;2022-12-05T06:36:01;3.60;99.90
6627;DHT22;3349;49.830;8.748;2022-12-05T06:38:28;3.60;99.90
6627;DHT22;3349;49.830;8.748;2022-12-05T06:40:55;3.60;99.90
6627;DHT22;3349;49.830;8.748;2022-12-05T06:43:22;3.60;99.90
6627;DHT22;3349;49.830;8.748;2022-12-05T06:45:50;3.70;99.90
6627;DHT22;3349;49.830;8.748;2022-12-05T06:48:17;3.70;99.90
6627;DHT22;3349;49.830;8.748;2022-12-05T06:50:48;3.70;99.90
6627;DHT22;3349;49.830;8.748;2022-12-05T06:53:14;3.70;99.90
6627;DHT22;3349;49.830;8.748;2022-12-05T06:55:41;3.70;99.90
6627;DHT22;3349;49.830;8.748;2022-12-05T06:58:08;3.70;99.90
6627;DHT22;3349;49.830;8.748;2022-12-05T07:00:35;3.70;99.90
6627;DHT22;3349;49.830;8.748;2022-12-05T07:03:20;3.70;99.90
6627;DHT22;3349;49.830;8.748;2022-12-05T07:05:47;3.70;99.90
6627;DHT22;3349;49.830;8.748;2022-12-05T07:08:14;3.70;99.90
6627;DHT22;3349;49.830;8.748;2022-12-05T07:10:41;3.70;99.90
6627;DHT22;3349;49.830;8.748;2022-12-05T07:13:08;3.70;99.90
6627;DHT22;3349;49.830;8.748;2022-12-05T07:15:36;3.70;99.90
6627;DHT22;3349;49.830;8.748;2022-12-05T07:18:03;3.80;99.90
6627;DHT22;3349;49.830;8.748;2022-12-05T07:20:31;3.80;99.90
6627;DHT22;3349;49.830;8.748;2022-12-05T07:22:58;3.80;99.90
6627;DHT22;3349;49.830;8.748;2022-12-05T07:25:24;3.80;99.90
6627;DHT22;3349;49.830;8.748;2022-12-05T07:27:51;3.80;99.90
6627;DHT22;3349;49.830;8.748;2022-12-05T07:30:18;3.90;99.90
6627;DHT22;3349;49.830;8.748;2022-12-05T07:32:45;3.90;99.90
6627;DHT22;3349;49.830;8.748;2022-12-05T07:35:12;3.90;99.90
6627;DHT22;3349;49.830;8.748;2022-12-05T07:37:40;3.90;99.90
6627;DHT22;3349;49.830;8.748;2022-12-05T07:40:07;3.90;99.90
6627;DHT22;3349;49.830;8.748;2022-12-05T07:42:35;3.90;99.90
6627;DHT22;3349;49.830;8.748;2022-12-05T07:45:02;3.90;99.90
6627;DHT22;3349;49.830;8.748;2022-12-05T07:47:29;4.00;99.90
6627;DHT22;3349;49.830;8.748;2022-12-05T07:49:56;3.90;99.90
6627;DHT22;3349;49.830;8.748;2022-12-05T07:52:23;3.90;99.90
6627;DHT22;3349;49.830;8.748;2022-12-05T07:54:51;4.00;99.90
6627;DHT22;3349;49.830;8.748;2022-12-05T07:57:18;4.00;99.90
6627;DHT22;3349;49.830;8.748;2022-12-05T07:59:44;4.00;99.90
6627;DHT22;3349;49.830;8.748;2022-12-05T08:02:11;4.00;99.90
6627;DHT22;3349;49.830;8.748;2022-12-05T08:04:38;4.00;99.90
6627;DHT22;3349;49.830;8.748;2022-12-05T08:07:05;4.00;99.90
6627;DHT22;3349;49.830;8.748;2022-12-05T08:09:31;4.10;99.90
6627;DHT22;3349;49.830;8.748;2022-12-05T08:11:59;4.00;99.90
6627;DHT22;3349;49.830;8.748;2022-12-05T08:14:26;4.10;99.90
6627;DHT22;3349;49.830;8.748;2022-12-05T08:16:53;4.10;99.90
6627;DHT22;3349;49.830;8.748;2022-12-05T08:19:20;4.10;99.90
6627;DHT22;3349;49.830;8.748;2022-12-05T08:21:47;4.10;99.90
6627;DHT22;3349;49.830;8.748;2022-12-05T08:24:14;4.10;99.90
6627;DHT22;3349;49.830;8.748;2022-12-05T08:26:41;4.20;99.90
6627;DHT22;3349;49.830;8.748;2022-12-05T08:29:10;4.20;99.90
6627;DHT22;3349;49.830;8.748;2022-12-05T08:31:41;4.20;99.90
6627;DHT22;3349;49.830;8.748;2022-12-05T08:34:10;4.20;99.90
6627;DHT22;3349;49.830;8.748;2022-12-05T08:36:38;4.20;99.90
6627;DHT22;3349;49.830;8.748;2022-12-05T08:39:07;4.20;99.90
6627;DHT22;3349;49.830;8.748;2022-12-05T08:41:34;4.30;99.90
6627;DHT22;3349;49.830;8.748;2022-12-05T08:44:03;4.30;99.90
6627;DHT22;3349;49.830;8.748;2022-12-05T08:46:32;4.30;99.90
6627;DHT22;3349;49.830;8.748;2022-12-05T08:49:01;4.30;99.90
6627;DHT22;3349;49.830;8.748;2022-12-05T08:51:28;4.30;99.90
6627;DHT22;3349;49.830;8.748;2022-12-05T08:53:55;4.30;99.90
6627;DHT22;3349;49.830;8.748;2022-12-05T08:56:22;4.30;99.90
6627;DHT22;3349;49.830;8.748;2022-12-05T08:58:49;4.30;99.90
6627;DHT22;3349;49.830;8.748;2022-12-05T09:01:17;4.30;99.90
6627;DHT22;3349;49.830;8.748;2022-12-05T09:03:46;4.30;99.90
6627;DHT22;3349;49.830;8.748;2022-12-05T09:06:15;4.20;99.90
6627;DHT22;3349;49.830;8.748;2022-12-05T09:08:42;4.20;99.90
6627;DHT22;3349;49.830;8.748;2022-12-05T09:11:11;4.20;99.90
6627;DHT22;3349;49.830;8.748;2022-12-05T09:13:39;4.20;99.90
6627;DHT22;3349;49.830;8.748;2022-12-05T09:16:07;4.20;99.90
6627;DHT22;3349;49.830;8.748;2022-12-05T09:18:34;4.20;99.90
6627;DHT22;3349;49.830;8.748;2022-12-05T09:21:06;4.20;99.90
6627;DHT22;3349;49.830;8.748;2022-12-05T09:23:34;4.30;99.90
6627;DHT22;3349;49.830;8.748;2022-12-05T09:26:00;4.30;99.90
6627;DHT22;3349;49.830;8.748;2022-12-05T09:28:27;4.40;99.90
6627;DHT22;3349;49.830;8.748;2022-12-05T09:30:55;4.40;99.90
6627;DHT22;3349;49.830;8.748;2022-12-05T09:33:23;4.50;99.90
6627;DHT22;3349;49.830;8.748;2022-12-05T09:35:49;4.50;99.90
6627;DHT22;3349;49.830;8.748;2022-12-05T09:38:18;4.60;99.90
6627;DHT22;3349;49.830;8.748;2022-12-05T09:40:44;4.60;99.90
6627;DHT22;3349;49.830;8.748;2022-12-05T09:43:19;4.60;99.90
6627;DHT22;3349;49.830;8.748;2022-12-05T09:45:53;4.70;99.90
6627;DHT22;3349;49.830;8.748;2022-12-05T09:48:24;4.70;99.90
6627;DHT22;3349;49.830;8.748;2022-12-05T09:50:55;4.80;99.90
6627;DHT22;3349;49.830;8.748;2022-12-05T09:53:26;4.70;99.90
6627;DHT22;3349;49.830;8.748;2022-12-05T09:55:59;4.80;99.90
6627;DHT22;3349;49.830;8.748;2022-12-05T09:58:36;4.80;99.90
6627;DHT22;3349;49.830;8.748;2022-12-05T10:01:14;4.80;99.90
6627;DHT22;3349;49.830;8.748;2022-12-05T10:03:46;4.80;99.90
6627;DHT22;3349;49.830;8.748;2022-12-05T10:06:19;4.80;99.90
6627;DHT22;3349;49.830;8.748;2022-12-05T10:09:05;4.80;99.90
6627;DHT22;3349;49.830;8.748;2022-12-05T10:11:38;4.80;99.90
6627;DHT22;3349;49.830;8.748;2022-12-05T10:14:11;4.80;99.90
6627;DHT22;3349;49.830;8.748;2022-12-05T10:16:46;4.70;99.90
6627;DHT22;3349;49.830;8.748;2022-12-05T10:19:17;4.70;99.90
6627;DHT22;3349;49.830;8.748;2022-12-05T10:21:52;4.80;99.90
6627;DHT22;3349;49.830;8.748;2022-12-05T10:24:27;4.70;99.90
6627;DHT22;3349;49.830;8.748;2022-12-05T10:26:58;4.80;99.90
6627;DHT22;3349;49.830;8.748;2022-12-05T10:29:28;4.80;99.90
6627;DHT22;3349;49.830;8.748;2022-12-05T10:32:01;4.80;99.90
6627;DHT22;3349;49.830;8.748;2022-12-05T10:34:32;4.80;99.90
6627;DHT22;3349;49.830;8.748;2022-12-05T10:37:08;4.90;99.90
6627;DHT22;3349;49.830;8.748;2022-12-05T10:39:37;4.90;99.90
6627;DHT22;3349;49.830;8.748;2022-12-05T10:42:05;4.90;99.90
6627;DHT22;3349;49.830;8.748;2022-12-05T10:44:35;4.90;99.90
6627;DHT22;3349;49.830;8.748;2022-12-05T10:47:06;4.90;99.90
6627;DHT22;3349;49.830;8.748;2022-12-05T10:49:43;4.90;99.90
6627;DHT22;3349;49.830;8.748;2022-12-05T10:52:11;4.90;99.90
6627;DHT22;3349;49.830;8.748;2022-12-05T10:54:44;4.90;99.90
6627;DHT22;3349;49.830;8.748;2022-12-05T10:57:21;4.80;99.90
6627;DHT22;3349;49.830;8.748;2022-12-05T10:59:48;4.80;99.90
6627;DHT22;3349;49.830;8.748;2022-12-05T11:02:21;4.80;99.90
6627;DHT22;3349;49.830;8.748;2022-12-05T11:04:49;4.80;99.90
6627;DHT22;3349;49.830;8.748;2022-12-05T11:07:26;4.80;99.90
6627;DHT22;3349;49.830;8.748;2022-12-05T11:09:55;4.80;99.90
6627;DHT22;3349;49.830;8.748;2022-12-05T11:12:23;4.80;99.90
6627;DHT22;3349;49.830;8.748;2022-12-05T11:14:58;4.80;99.90
6627;DHT22;3349;49.830;8.748;2022-12-05T11:17:30;4.80;99.90
6627;DHT22;3349;49.830;8.748;2022-12-05T11:19:57;4.90;99.90
6627;DHT22;3349;49.830;8.748;2022-12-05T11:22:30;5.00;99.90
6627;DHT22;3349;49.830;8.748;2022-12-05T11:24:59;4.90;99.90
6627;DHT22;3349;49.830;8.748;2022-12-05T11:27:28;5.00;99.90
6627;DHT22;3349;49.830;8.748;2022-12-05T11:30:00;5.00;99.90
6627;DHT22;3349;49.830;8.748;2022-12-05T11:32:29;5.00;99.90
6627;DHT22;3349;49.830;8.748;2022-12-05T11:35:02;5.00;99.90
6627;DHT22;3349;49.830;8.748;2022-12-05T11:37:34;5.00;99.90
6627;DHT22;3349;49.830;8.748;2022-12-05T11:40:12;5.00;99.90
6627;DHT22;3349;49.830;8.748;2022-12-05T11:42:57;5.10;99.90
6627;DHT22;3349;49.830;8.748;2022-12-05T11:45:41;5.10;99.90
6627;DHT22;3349;49.830;8.748;2022-12-05T11:48:39;5.20;99.90
6627;DHT22;3349;49.830;8.748;2022-12-05T11:51:22;5.30;99.90
6627;DHT22;3349;49.830;8.748;2022-12-05T11:54:16;5.30;99.90
6627;DHT22;3349;49.830;8.748;2022-12-05T11:56:51;5.30;99.90
6627;DHT22;3349;49.830;8.748;2022-12-05T11:59:49;5.30;99.90
6627;DHT22;3349;49.830;8.748;2022-12-05T12:02:28;5.30;99.90
6627;DHT22;3349;49.830;8.748;2022-12-05T12:05:17;5.30;99.90
6627;DHT22;3349;49.830;8.748;2022-12-05T12:07:59;5.20;99.90
6627;DHT22;3349;49.830;8.748;2022-12-05T12:10:32;5.20;99.90
6627;DHT22;3349;49.830;8.748;2022-12-05T12:13:20;5.20;99.90
6627;DHT22;3349;49.830;8.748;2022-12-05T12:15:57;5.10;99.90
6627;DHT22;3349;49.830;8.748;2022-12-05T12:18:44;5.10;99.90
6627;DHT22;3349;49.830;8.748;2022-12-05T12:21:16;5.10;99.90
6627;DHT22;3349;49.830;8.748;2022-12-05T12:23:59;5.10;99.90
6627;DHT22;3349;49.830;8.748;2022-12-05T12:26:35;5.10;99.90
6627;DHT22;3349;49.830;8.748;2022-12-05T12:29:15;5.10;99.90
6627;DHT22;3349;49.830;8.748;2022-12-05T12:31:54;5.10;99.90
6627;DHT22;3349;49.830;8.748;2022-12-05T12:34:52;5.10;99.90
6627;DHT22;3349;49.830;8.748;2022-12-05T12:37:29;5.10;99.90
6627;DHT22;3349;49.830;8.748;2022-12-05T12:40:04;5.10;99.90
6627;DHT22;3349;49.830;8.748;2022-12-05T12:42:39;5.00;99.90
6627;DHT22;3349;49.830;8.748;2022-12-05T12:48:32;5.00;99.90
6627;DHT22;3349;49.830;8.748;2022-12-05T12:51:03;5.00;99.90
6627;DHT22;3349;49.830;8.748;2022-12-05T12:56:46;5.00;99.90
6627;DHT22;3349;49.830;8.748;2022-12-05T13:02:18;5.10;99.90
6627;DHT22;3349;49.830;8.748;2022-12-05T13:04:51;5.00;99.90
6627;DHT22;3349;49.830;8.748;2022-12-05T13:07:23;5.00;99.90
6627;DHT22;3349;49.830;8.748;2022-12-05T13:09:55;5.00;99.90
6627;DHT22;3349;49.830;8.748;2022-12-05T13:12:26;5.00;99.90
6627;DHT22;3349;49.830;8.748;2022-12-05T13:14:57;5.00;99.90
6627;DHT22;3349;49.830;8.748;2022-12-05T13:17:25;5.00;99.90
6627;DHT22;3349;49.830;8.748;2022-12-05T13:19:54;5.00;99.90
6627;DHT22;3349;49.830;8.748;2022-12-05T13:22:24;5.00;99.90
6627;DHT22;3349;49.830;8.748;2022-12-05T13:24:53;5.10;99.90
6627;DHT22;3349;49.830;8.748;2022-12-05T13:27:21;5.00;99.90
6627;DHT22;3349;49.830;8.748;2022-12-05T13:29:50;5.00;99.90
6627;DHT22;3349;49.830;8.748;2022-12-05T13:32:29;5.00;99.90
6627;DHT22;3349;49.830;8.748;2022-12-05T13:34:58;5.10;99.90
6627;DHT22;3349;49.830;8.748;2022-12-05T13:37:27;5.10;99.90
6627;DHT22;3349;49.830;8.748;2022-12-05T13:40:23;5.10;99.90
6627;DHT22;3349;49.830;8.748;2022-12-05T13:43:09;5.10;99.90
6627;DHT22;3349;49.830;8.748;2022-12-05T13:45:38;5.10;99.90
6627;DHT22;3349;49.830;8.748;2022-12-05T13:48:13;5.10;99.90
6627;DHT22;3349;49.830;8.748;2022-12-05T13:50:49;5.10;99.90
6627;DHT22;3349;49.830;8.748;2022-12-05T13:53:26;5.10;99.90
6627;DHT22;3349;49.830;8.748;2022-12-05T13:55:56;5.20;99.90
6627;DHT22;3349;49.830;8.748;2022-12-05T13:58:41;5.10;99.90
6627;DHT22;3349;49.830;8.748;2022-12-05T14:01:46;5.20;99.90
6627;DHT22;3349;49.830;8.748;2022-12-05T14:04:46;5.20;99.90
6627;DHT22;3349;49.830;8.748;2022-12-05T14:07:37;5.20;99.90
6627;DHT22;3349;49.830;8.748;2022-12-05T14:10:06;5.20;99.90
6627;DHT22;3349;49.830;8.748;2022-12-05T14:12:52;5.20;99.90
6627;DHT22;3349;49.830;8.748;2022-12-05T14:15:27;5.30;99.90
6627;DHT22;3349;49.830;8.748;2022-12-05T14:17:59;5.30;99.90
6627;DHT22;3349;49.830;8.748;2022-12-05T14:20:34;5.30;99.90
6627;DHT22;3349;49.830;8.748;2022-12-05T14:23:15;5.30;99.90
6627;DHT22;3349;49.830;8.748;2022-12-05T14:25:59;5.20;99.90
6627;DHT22;3349;49.830;8.748;2022-12-05T14:28:38;5.20;99.90
6627;DHT22;3349;49.830;8.748;2022-12-05T14:31:22;5.20;99.90
6627;DHT22;3349;49.830;8.748;2022-12-05T14:34:14;5.30;99.90
6627;DHT22;3349;49.830;8.748;2022-12-05T14:36:56;5.30;99.90
6627;DHT22;3349;49.830;8.748;2022-12-05T14:39:31;5.20;99.90
6627;DHT22;3349;49.830;8.748;2022-12-05T14:42:00;5.20;99.90
6627;DHT22;3349;49.830;8.748;2022-12-05T14:44:28;5.20;99.90
6627;DHT22;3349;49.830;8.748;2022-12-05T14:46:57;5.20;99.90
6627;DHT22;3349;49.830;8.748;2022-12-05T14:49:55;5.20;99.90
6627;DHT22;3349;49.830;8.748;2022-12-05T14:52:28;5.20;99.90
6627;DHT22;3349;49.830;8.748;2022-12-05T14:55:02;5.20;99.90
6627;DHT22;3349;49.830;8.748;2022-12-05T14:57:30;5.20;99.90
6627;DHT22;3349;49.830;8.748;2022-12-05T15:00:03;5.20;99.90
6627;DHT22;3349;49.830;8.748;2022-12-05T15:02:33;5.20;99.90
6627;DHT22;3349;49.830;8.748;2022-12-05T15:05:14;5.20;99.90
6627;DHT22;3349;49.830;8.748;2022-12-05T15:07:45;5.20;99.90
6627;DHT22;3349;49.830;8.748;2022-12-05T15:10:16;5.20;99.90
6627;DHT22;3349;49.830;8.748;2022-12-05T15:12:47;5.20;99.90
6627;DHT22;3349;49.830;8.748;2022-12-05T15:15:18;5.20;99.90
6627;DHT22;3349;49.830;8.748;2022-12-05T15:17:51;5.20;99.90
6627;DHT22;3349;49.830;8.748;2022-12-05T15:20:28;5.20;99.90
6627;DHT22;3349;49.830;8.748;2022-12-05T15:22:59;5.20;99.90
6627;DHT22;3349;49.830;8.748;2022-12-05T15:25:29;5.20;99.90
6627;DHT22;3349;49.830;8.748;2022-12-05T15:27:58;5.20;99.90
6627;DHT22;3349;49.830;8.748;2022-12-05T15:30:26;5.20;99.90
6627;DHT22;3349;49.830;8.748;2022-12-05T15:32:53;5.20;99.90
6627;DHT22;3349;49.830;8.748;2022-12-05T15:35:23;5.20;99.90
6627;DHT22;3349;49.830;8.748;2022-12-05T15:37:54;5.20;99.90
6627;DHT22;3349;49.830;8.748;2022-12-05T15:40:23;5.20;99.90
6627;DHT22;3349;49.830;8.748;2022-12-05T15:42:52;5.20;99.90
6627;DHT22;3349;49.830;8.748;2022-12-05T15:45:22;5.20;99.90
6627;DHT22;3349;49.830;8.748;2022-12-05T15:47:51;5.20;99.90
6627;DHT22;3349;49.830;8.748;2022-12-05T15:50:24;5.10;99.90
6627;DHT22;3349;49.830;8.748;2022-12-05T15:52:55;5.20;99.90
6627;DHT22;3349;49.830;8.748;2022-12-05T15:55:28;5.20;99.90
6627;DHT22;3349;49.830;8.748;2022-12-05T15:58:00;5.20;99.90
6627;DHT22;3349;49.830;8.748;2022-12-05T16:00:29;5.20;99.90
6627;DHT22;3349;49.830;8.748;2022-12-05T16:03:03;5.10;99.90
6627;DHT22;3349;49.830;8.748;2022-12-05T16:05:32;5.20;99.90
6627;DHT22;3349;49.830;8.748;2022-12-05T16:08:01;5.10;99.90
6627;DHT22;3349;49.830;8.748;2022-12-05T16:10:29;5.20;99.90
6627;DHT22;3349;49.830;8.748;2022-12-05T16:13:02;5.20;99.90
6627;DHT22;3349;49.830;8.748;2022-12-05T16:15:30;5.10;99.90
6627;DHT22;3349;49.830;8.748;2022-12-05T16:17:59;5.10;99.90
6627;DHT22;3349;49.830;8.748;2022-12-05T16:20:30;5.10;99.90
6627;DHT22;3349;49.830;8.748;2022-12-05T16:23:00;5.10;99.90
6627;DHT22;3349;49.830;8.748;2022-12-05T16:25:29;5.10;99.90
6627;DHT22;3349;49.830;8.748;2022-12-05T16:28:12;5.10;99.90
6627;DHT22;3349;49.830;8.748;2022-12-05T16:30:52;5.10;99.90
6627;DHT22;3349;49.830;8.748;2022-12-05T16:33:19;5.00;99.90
6627;DHT22;3349;49.830;8.748;2022-12-05T16:35:47;5.00;99.90
6627;DHT22;3349;49.830;8.748;2022-12-05T16:38:19;5.00;99.90
6627;DHT22;3349;49.830;8.748;2022-12-05T16:40:56;5.00;99.90
6627;DHT22;3349;49.830;8.748;2022-12-05T16:43:27;5.00;99.90
6627;DHT22;3349;49.830;8.748;2022-12-05T16:45:56;5.00;99.90
6627;DHT22;3349;49.830;8.748;2022-12-05T16:48:24;5.10;99.90
6627;DHT22;3349;49.830;8.748;2022-12-05T16:50:52;5.00;99.90
6627;DHT22;3349;49.830;8.748;2022-12-05T16:53:40;5.00;99.90
6627;DHT22;3349;49.830;8.748;2022-12-05T16:56:13;5.00;99.90
6627;DHT22;3349;49.830;8.748;2022-12-05T16:58:40;5.00;99.90